createdAt,value
2019-01-22T00:00:41.720Z,41.00
2019-01-22T00:03:11.081Z,38.07
2019-01-22T00:05:40.357Z,37.43
2019-01-22T00:08:09.592Z,39.17
2019-01-22T00:10:38.857Z,35.23
2019-01-22T00:13:08.103Z,39.33
2019-01-22T00:15:37.400Z,35.40
2019-01-22T00:18:06.641Z,39.07
2019-01-22T00:20:35.915Z,39.33
2019-01-22T00:23:05.153Z,39.37
2019-01-22T00:25:34.467Z,40.70
2019-01-22T00:28:03.767Z,36.67
2019-01-22T00:30:33.051Z,37.43
2019-01-22T00:33:02.306Z,40.03
2019-01-22T00:35:31.554Z,41.47
2019-01-22T00:38:00.797Z,40.50
2019-01-22T00:40:30.058Z,42.63
2019-01-22T00:42:59.317Z,40.27
2019-01-22T00:45:28.663Z,44.70
2019-01-22T00:47:57.982Z,40.23
2019-01-22T00:50:27.286Z,38.77
2019-01-22T00:52:56.572Z,39.40
2019-01-22T00:55:25.831Z,40.10
2019-01-22T00:57:55.188Z,42.30
2019-01-22T01:00:29.916Z,38.10
2019-01-22T01:02:59.357Z,38.50
2019-01-22T01:05:28.628Z,39.57
2019-01-22T01:07:58.968Z,36.30
2019-01-22T01:10:27.300Z,37.97
2019-01-22T01:12:56.633Z,36.63
2019-01-22T01:15:25.872Z,34.60
2019-01-22T01:17:55.137Z,39.27
2019-01-22T01:20:24.416Z,38.00
2019-01-22T01:22:53.689Z,38.50
2019-01-22T01:25:23.412Z,38.67
2019-01-22T01:27:52.766Z,35.27
2019-01-22T01:30:23.852Z,39.30
2019-01-22T01:32:53.184Z,37.40
2019-01-22T01:35:22.474Z,37.03
2019-01-22T01:37:51.760Z,39.37
2019-01-22T01:40:21.089Z,38.77
2019-01-22T01:42:50.367Z,38.17
2019-01-22T01:45:19.892Z,40.37
2019-01-22T01:47:49.178Z,41.07
2019-01-22T01:50:18.942Z,39.77
2019-01-22T01:52:48.274Z,38.60
2019-01-22T01:55:18.128Z,35.77
2019-01-22T01:57:47.520Z,36.70
2019-01-22T02:00:18.774Z,39.43
2019-01-22T02:02:48.050Z,39.13
2019-01-22T02:05:17.405Z,38.40
2019-01-22T02:07:46.663Z,42.07
2019-01-22T02:10:21.114Z,40.30
2019-01-22T02:12:59.495Z,38.63
2019-01-22T02:15:41.707Z,38.97
2019-01-22T02:18:20.729Z,40.67
2019-01-22T02:21:46.826Z,46.37
2019-01-22T02:24:50.260Z,41.97
2019-01-22T02:28:16.707Z,42.73
2019-01-22T02:31:20.570Z,39.73
2019-01-22T02:34:30.054Z,41.13
2019-01-22T02:37:55.614Z,38.23
2019-01-22T02:40:59.130Z,40.10
2019-01-22T02:44:00.183Z,39.27
2019-01-22T02:46:57.258Z,38.70
2019-01-22T02:50:07.186Z,41.90
2019-01-22T02:53:05.322Z,40.13
2019-01-22T02:56:26.725Z,40.10
2019-01-22T02:59:32.212Z,43.13
2019-01-22T03:03:07.636Z,37.37
2019-01-22T03:05:56.092Z,40.07
2019-01-22T03:09:15.099Z,40.77
2019-01-22T03:12:09.532Z,41.50
2019-01-22T03:15:33.018Z,41.87
2019-01-22T03:18:31.724Z,40.33
2019-01-22T03:21:30.521Z,42.70
2019-01-22T03:24:37.336Z,43.50
2019-01-22T03:27:42.177Z,42.60
2019-01-22T03:30:44.318Z,44.50
2019-01-22T03:33:46.566Z,43.50
2019-01-22T03:37:16.057Z,44.13
2019-01-22T03:40:09.420Z,42.63
2019-01-22T03:43:23.749Z,43.77
2019-01-22T03:46:25.068Z,42.73
2019-01-22T03:49:26.097Z,45.50
2019-01-22T03:52:04.654Z,43.93
2019-01-22T03:55:06.407Z,41.73
2019-01-22T03:57:48.789Z,41.67
2019-01-22T04:00:34.392Z,41.93
2019-01-22T04:03:03.872Z,45.10
2019-01-22T04:05:33.264Z,46.97
2019-01-22T04:08:02.585Z,43.37
2019-01-22T04:10:41.036Z,49.97
2019-01-22T04:13:10.416Z,46.10
2019-01-22T04:15:44.196Z,45.10
2019-01-22T04:18:13.698Z,42.97
2019-01-22T04:20:45.635Z,42.60
2019-01-22T04:23:21.400Z,45.47
2019-01-22T04:26:10.810Z,43.13
2019-01-22T04:29:30.190Z,44.13
2019-01-22T04:32:32.142Z,47.37
2019-01-22T04:35:44.670Z,43.27
2019-01-22T04:38:36.575Z,49.17
2019-01-22T04:42:09.113Z,46.03
2019-01-22T04:45:05.132Z,51.87
2019-01-22T04:48:13.103Z,49.30
2019-01-22T04:51:08.226Z,49.30
2019-01-22T04:54:12.716Z,45.40
2019-01-22T04:56:55.386Z,49.17
2019-01-22T04:59:56.194Z,47.43
2019-01-22T05:03:10.059Z,47.17
2019-01-22T05:06:17.066Z,47.03
2019-01-22T05:09:30.160Z,50.90
2019-01-22T05:12:36.922Z,41.40
2019-01-22T05:15:38.503Z,47.70
2019-01-22T05:19:01.052Z,45.63
2019-01-22T05:22:01.452Z,43.33
2019-01-22T05:25:12.270Z,47.10
2019-01-22T05:28:15.130Z,51.03
2019-01-22T05:31:01.020Z,46.80
2019-01-22T05:34:15.015Z,47.00
2019-01-22T05:37:56.464Z,48.00
2019-01-22T05:41:02.081Z,44.83
2019-01-22T05:44:17.684Z,46.63
2019-01-22T05:47:17.023Z,47.40
2019-01-22T05:50:18.261Z,52.07
2019-01-22T05:53:20.106Z,46.53
2019-01-22T05:55:51.074Z,45.00
2019-01-22T05:59:35.626Z,46.83
2019-01-22T06:02:32.148Z,46.93
2019-01-22T06:05:51.689Z,46.53
2019-01-22T06:08:52.190Z,45.87
2019-01-22T06:11:55.719Z,44.03
2019-01-22T06:14:44.039Z,48.20
2019-01-22T06:17:51.354Z,50.27
2019-01-22T06:20:52.856Z,43.07
2019-01-22T06:24:00.303Z,45.97
2019-01-22T06:26:52.492Z,45.53
2019-01-22T06:29:33.594Z,47.07
2019-01-22T06:32:35.896Z,48.90
2019-01-22T06:35:26.861Z,46.43
2019-01-22T06:38:08.485Z,45.30
2019-01-22T06:41:13.693Z,52.47
2019-01-22T06:44:24.791Z,50.80
2019-01-22T06:47:28.289Z,47.67
2019-01-22T06:50:23.250Z,47.57
2019-01-22T06:53:25.858Z,49.63
2019-01-22T06:56:15.568Z,47.73
2019-01-22T06:59:18.410Z,46.50
2019-01-22T07:02:29.380Z,47.67
2019-01-22T07:05:04.361Z,46.30
2019-01-22T07:08:24.103Z,48.03
2019-01-22T07:11:21.142Z,49.90
2019-01-22T07:14:35.840Z,44.87
2019-01-22T07:17:27.484Z,47.43
2019-01-22T07:20:41.967Z,57.93
2019-01-22T07:23:38.040Z,50.20
2019-01-22T07:27:13.533Z,46.47
2019-01-22T07:30:22.256Z,49.50
2019-01-22T07:33:42.943Z,48.57
2019-01-22T07:36:30.902Z,48.13
2019-01-22T07:39:11.144Z,43.37
2019-01-22T07:41:55.616Z,43.73
2019-01-22T07:45:12.686Z,43.13
2019-01-22T07:48:15.026Z,41.53
2019-01-22T07:51:14.707Z,43.87
2019-01-22T07:54:24.780Z,39.60
2019-01-22T07:57:33.725Z,39.10
2019-01-22T08:00:35.461Z,39.67
2019-01-22T08:04:14.624Z,39.30
2019-01-22T08:07:12.927Z,34.27
2019-01-22T08:10:38.843Z,40.23
2019-01-22T08:13:46.416Z,38.80
2019-01-22T08:16:45.734Z,36.70
2019-01-22T08:19:27.324Z,36.30
2019-01-22T08:22:31.196Z,39.93
2019-01-22T08:25:51.308Z,40.83
2019-01-22T08:28:41.574Z,38.97
2019-01-22T08:31:51.234Z,36.73
2019-01-22T08:35:04.355Z,41.43
2019-01-22T08:38:10.329Z,40.93
2019-01-22T08:41:27.499Z,37.07
2019-01-22T08:44:18.566Z,34.93
2019-01-22T08:47:16.181Z,31.30
2019-01-22T08:50:23.020Z,34.77
2019-01-22T08:53:11.545Z,37.30
2019-01-22T08:56:16.678Z,40.23
2019-01-22T08:59:21.642Z,38.97
2019-01-22T09:02:20.690Z,36.33
2019-01-22T09:05:46.138Z,32.97
2019-01-22T09:09:06.048Z,36.90
2019-01-22T09:11:58.291Z,52.67
2019-01-22T09:15:10.900Z,37.27
2019-01-22T09:18:33.769Z,38.27
2019-01-22T09:21:55.889Z,37.13
2019-01-22T09:24:47.042Z,40.37
2019-01-22T09:27:33.362Z,34.83
2019-01-22T09:31:02.354Z,38.20
2019-01-22T09:34:22.125Z,36.93
2019-01-22T09:37:14.562Z,31.93
2019-01-22T09:39:43.846Z,37.30
2019-01-22T09:42:13.105Z,33.60
2019-01-22T09:44:42.483Z,36.87
2019-01-22T09:47:11.727Z,34.90
2019-01-22T09:49:41.102Z,35.60
2019-01-22T09:52:10.439Z,34.37
2019-01-22T09:54:39.734Z,37.47
2019-01-22T09:57:09.014Z,33.17
2019-01-22T09:59:38.355Z,33.17
2019-01-22T10:02:07.691Z,33.47
2019-01-22T10:04:37.020Z,42.23
2019-01-22T10:07:06.259Z,34.17
2019-01-22T10:09:35.519Z,32.93
2019-01-22T10:12:05.016Z,31.03
2019-01-22T10:14:34.281Z,32.33
2019-01-22T10:17:03.570Z,35.03
2019-01-22T10:19:32.838Z,35.73
2019-01-22T10:22:02.210Z,35.33
2019-01-22T10:24:31.487Z,33.90
2019-01-22T10:27:00.772Z,34.10
2019-01-22T10:29:30.035Z,31.30
2019-01-22T10:31:59.294Z,31.07
2019-01-22T10:34:28.539Z,28.60
2019-01-22T10:36:57.852Z,32.63
2019-01-22T10:39:27.110Z,32.40
2019-01-22T10:41:56.393Z,31.10
2019-01-22T10:44:25.685Z,31.93
2019-01-22T10:46:54.961Z,32.03
2019-01-22T10:49:24.202Z,32.30
2019-01-22T10:51:53.476Z,30.67
2019-01-22T10:54:22.783Z,27.37
2019-01-22T10:56:52.061Z,32.13
2019-01-22T10:59:21.383Z,30.47
2019-01-22T11:01:50.732Z,29.73
2019-01-22T11:04:20.045Z,31.73
2019-01-22T11:06:49.332Z,29.83
2019-01-22T11:09:18.646Z,32.20
2019-01-22T11:11:47.900Z,29.90
2019-01-22T11:14:17.193Z,31.00
2019-01-22T11:16:46.437Z,27.17
2019-01-22T11:19:15.800Z,31.87
2019-01-22T11:21:45.121Z,31.33
2019-01-22T11:24:14.400Z,31.90
2019-01-22T11:26:43.721Z,40.83
2019-01-22T11:29:13.124Z,31.50
2019-01-22T11:31:42.452Z,33.20
2019-01-22T11:34:11.790Z,31.13
2019-01-22T11:36:41.189Z,32.47
2019-01-22T11:39:11.224Z,30.97
2019-01-22T11:41:40.547Z,29.30
2019-01-22T11:44:09.912Z,26.77
2019-01-22T11:46:39.194Z,26.80
2019-01-22T11:49:08.474Z,27.23
2019-01-22T11:51:37.744Z,25.37
2019-01-22T11:54:07.080Z,30.10
2019-01-22T11:56:36.392Z,27.50
2019-01-22T11:59:05.694Z,25.43
2019-01-22T12:01:35.040Z,24.97
2019-01-22T12:04:04.421Z,25.73
2019-01-22T12:06:33.734Z,24.77
2019-01-22T12:09:03.104Z,28.20
2019-01-22T12:11:32.370Z,26.03
2019-01-22T12:14:01.668Z,26.07
2019-01-22T12:16:30.958Z,26.80
2019-01-22T12:19:00.315Z,26.33
2019-01-22T12:21:29.586Z,24.97
2019-01-22T12:23:58.872Z,25.97
2019-01-22T12:26:28.164Z,27.27
2019-01-22T12:28:57.438Z,24.37
2019-01-22T12:31:26.862Z,27.07
2019-01-22T12:33:56.118Z,25.70
2019-01-22T12:36:25.406Z,24.60
2019-01-22T12:38:54.652Z,24.77
2019-01-22T12:41:23.939Z,23.80
2019-01-22T12:43:53.270Z,23.37
2019-01-22T12:46:22.567Z,28.90
2019-01-22T12:48:51.904Z,26.07
2019-01-22T12:51:21.104Z,24.93
2019-01-22T12:53:50.447Z,26.33
2019-01-22T12:56:19.680Z,24.90
2019-01-22T12:58:49.043Z,30.17
2019-01-22T13:01:18.320Z,28.13
2019-01-22T13:03:47.652Z,27.50
2019-01-22T13:06:17.003Z,27.57
2019-01-22T13:08:46.254Z,27.03
2019-01-22T13:11:15.536Z,25.50
2019-01-22T13:13:44.814Z,25.27
2019-01-22T13:16:14.066Z,28.80
2019-01-22T13:18:43.363Z,26.70
2019-01-22T13:21:12.666Z,26.77
2019-01-22T13:23:41.926Z,27.57
2019-01-22T13:26:11.645Z,32.97
2019-01-22T13:28:40.542Z,31.23
2019-01-22T13:31:09.776Z,29.10
2019-01-22T13:33:39.038Z,27.03
2019-01-22T13:36:08.704Z,30.60
2019-01-22T13:38:37.980Z,32.77
2019-01-22T13:41:07.250Z,29.00
2019-01-22T13:43:36.588Z,31.07
2019-01-22T13:46:05.873Z,32.53
2019-01-22T13:48:36.033Z,31.87
2019-01-22T13:51:04.478Z,29.03
2019-01-22T13:53:33.782Z,29.87
2019-01-22T13:56:03.049Z,33.33
2019-01-22T13:58:32.344Z,31.73
2019-01-22T14:01:01.628Z,33.47
2019-01-22T14:03:30.896Z,29.17
2019-01-22T14:06:00.248Z,34.83
2019-01-22T14:08:29.552Z,32.63
2019-01-22T14:10:58.857Z,32.17
2019-01-22T14:13:28.130Z,31.97
2019-01-22T14:15:57.444Z,33.93
2019-01-22T14:18:26.777Z,41.63
2019-01-22T14:20:56.095Z,31.77
2019-01-22T14:23:25.424Z,31.97
2019-01-22T14:25:54.718Z,30.47
2019-01-22T14:28:24.026Z,37.87
2019-01-22T14:30:53.325Z,31.90
2019-01-22T14:33:22.626Z,35.63
2019-01-22T14:35:51.869Z,35.60
2019-01-22T14:38:21.170Z,35.67
2019-01-22T14:40:50.438Z,31.07
2019-01-22T14:43:19.760Z,33.20
2019-01-22T14:45:49.036Z,34.47
2019-01-22T14:48:18.361Z,34.40
2019-01-22T14:50:47.622Z,33.60
2019-01-22T14:53:16.918Z,36.37
2019-01-22T14:55:46.186Z,37.20
2019-01-22T14:58:15.492Z,35.87
2019-01-22T15:00:44.858Z,35.73
2019-01-22T15:03:14.164Z,37.23
2019-01-22T15:05:43.417Z,39.33
2019-01-22T15:08:12.724Z,40.03
2019-01-22T15:10:42.030Z,36.03
2019-01-22T15:13:11.350Z,39.17
2019-01-22T15:15:40.610Z,36.20
2019-01-22T15:18:09.899Z,38.03
2019-01-22T15:20:39.150Z,39.20
2019-01-22T15:23:08.392Z,36.23
2019-01-22T15:25:37.666Z,38.17
2019-01-22T15:28:06.958Z,36.67
2019-01-22T15:30:37.348Z,38.93
2019-01-22T15:33:07.570Z,42.90
2019-01-22T15:35:36.873Z,44.07
2019-01-22T15:38:06.152Z,41.07
2019-01-22T15:40:35.528Z,41.47
2019-01-22T15:43:04.854Z,40.60
2019-01-22T15:45:34.211Z,45.47
2019-01-22T15:48:03.497Z,43.10
2019-01-22T15:50:32.836Z,41.27
2019-01-22T15:53:02.189Z,37.60
2019-01-22T15:55:37.306Z,39.90
2019-01-22T15:58:07.043Z,42.47
2019-01-22T16:00:36.418Z,41.23
2019-01-22T16:03:05.899Z,43.27
2019-01-22T16:05:35.257Z,38.50
2019-01-22T16:08:06.552Z,42.63
2019-01-22T16:10:34.443Z,38.97
2019-01-22T16:13:03.875Z,40.93
2019-01-22T16:15:33.238Z,44.17
2019-01-22T16:18:02.548Z,36.67
2019-01-22T16:20:31.835Z,39.53
2019-01-22T16:23:01.115Z,39.93
2019-01-22T16:25:30.455Z,41.93
2019-01-22T16:27:59.739Z,40.17
2019-01-22T16:30:29.025Z,42.33
2019-01-22T16:32:58.390Z,41.70
2019-01-22T16:35:27.995Z,42.30
2019-01-22T16:37:57.392Z,41.90
2019-01-22T16:40:26.728Z,42.47
2019-01-22T16:42:56.083Z,38.00
2019-01-22T16:45:27.980Z,43.23
2019-01-22T16:47:57.273Z,43.13
2019-01-22T16:50:27.551Z,40.70
2019-01-22T16:52:56.823Z,40.73
2019-01-22T16:55:28.614Z,42.80
2019-01-22T16:57:58.147Z,38.17
2019-01-22T17:00:29.270Z,37.43
2019-01-22T17:02:58.556Z,36.93
2019-01-22T17:05:27.809Z,37.10
2019-01-22T17:07:57.079Z,37.93
2019-01-22T17:10:26.367Z,37.00
2019-01-22T17:12:55.846Z,36.03
2019-01-22T17:15:25.213Z,42.67
2019-01-22T17:17:54.638Z,39.47
2019-01-22T17:20:29.400Z,38.80
2019-01-22T17:23:02.401Z,38.17
2019-01-22T17:25:28.041Z,35.10
2019-01-22T17:27:57.428Z,37.23
2019-01-22T17:30:26.743Z,34.70
2019-01-22T17:33:27.721Z,44.07
2019-01-22T17:35:57.027Z,39.80
2019-01-22T17:38:26.342Z,39.83
2019-01-22T17:40:55.674Z,42.10
2019-01-22T17:43:24.997Z,40.93
2019-01-22T17:45:54.411Z,37.93
2019-01-22T17:48:23.774Z,38.63
2019-01-22T17:50:53.052Z,39.50
2019-01-22T17:53:22.352Z,38.93
2019-01-22T17:55:51.682Z,37.80
2019-01-22T17:58:21.005Z,46.07
2019-01-22T18:00:50.330Z,42.03
2019-01-22T18:03:19.570Z,41.50
2019-01-22T18:05:49.120Z,41.90
2019-01-22T18:08:18.429Z,46.40
2019-01-22T18:10:47.808Z,43.67
2019-01-22T18:13:17.090Z,39.60
2019-01-22T18:15:46.424Z,43.87
2019-01-22T18:18:15.846Z,40.73
2019-01-22T18:20:45.184Z,41.17
2019-01-22T18:23:14.439Z,38.90
2019-01-22T18:25:43.723Z,39.33
2019-01-22T18:28:13.184Z,41.23
2019-01-22T18:30:43.329Z,43.97
2019-01-22T18:33:11.744Z,40.90
2019-01-22T18:35:43.271Z,40.37
2019-01-22T18:38:14.714Z,44.80
2019-01-22T18:40:43.987Z,41.33
2019-01-22T18:43:13.275Z,45.30
2019-01-22T18:45:42.699Z,43.80
2019-01-22T18:48:11.985Z,44.20
2019-01-22T18:50:41.255Z,45.90
2019-01-22T18:53:10.843Z,44.87
2019-01-22T18:55:40.191Z,42.50
2019-01-22T18:58:09.525Z,44.63
2019-01-22T19:00:38.803Z,47.20
2019-01-22T19:03:08.109Z,61.37
2019-01-22T19:05:37.386Z,53.63
2019-01-22T19:08:06.697Z,56.43
2019-01-22T19:10:35.995Z,53.00
2019-01-22T19:13:05.286Z,45.63
2019-01-22T19:15:34.567Z,48.37
2019-01-22T19:18:03.923Z,48.93
2019-01-22T19:20:33.278Z,48.33
2019-01-22T19:23:02.544Z,50.00
2019-01-22T19:25:31.859Z,46.50
2019-01-22T19:28:01.163Z,46.13
2019-01-22T19:30:31.012Z,49.43
2019-01-22T19:33:00.272Z,51.90
2019-01-22T19:35:29.570Z,51.17
2019-01-22T19:37:58.901Z,48.80
2019-01-22T19:40:28.241Z,47.87
2019-01-22T19:42:57.501Z,48.37
2019-01-22T19:45:32.110Z,46.63
2019-01-22T19:48:01.392Z,49.80
2019-01-22T19:50:30.696Z,51.80
2019-01-22T19:52:59.946Z,51.17
2019-01-22T19:55:29.257Z,51.57
2019-01-22T19:57:58.539Z,50.57
2019-01-22T20:00:33.029Z,51.00
2019-01-22T20:03:02.348Z,52.47
2019-01-22T20:05:31.648Z,50.40
2019-01-22T20:08:01.000Z,55.40
2019-01-22T20:10:30.420Z,52.40
2019-01-22T20:12:59.784Z,49.17
2019-01-22T20:15:29.082Z,56.77
2019-01-22T20:17:58.398Z,53.33
2019-01-22T20:20:27.685Z,52.73
2019-01-22T20:22:56.999Z,56.30
2019-01-22T20:25:26.276Z,54.77
2019-01-22T20:27:55.697Z,53.10
2019-01-22T20:30:30.408Z,54.50
2019-01-22T20:32:59.736Z,49.47
2019-01-22T20:35:29.040Z,50.83
2019-01-22T20:37:58.324Z,55.90
2019-01-22T20:40:27.586Z,56.00
2019-01-22T20:42:56.888Z,54.50
2019-01-22T20:45:27.623Z,49.63
2019-01-22T20:47:56.949Z,60.90
2019-01-22T20:50:26.227Z,53.20
2019-01-22T20:52:55.572Z,60.80
2019-01-22T20:55:25.030Z,51.47
2019-01-22T20:57:55.274Z,52.87
2019-01-22T21:00:24.251Z,54.20
2019-01-22T21:02:53.586Z,56.83
2019-01-22T21:05:25.138Z,55.73
2019-01-22T21:07:54.436Z,53.03
2019-01-22T21:10:28.387Z,51.50
2019-01-22T21:12:57.826Z,53.90
2019-01-22T21:15:27.258Z,52.30
2019-01-22T21:17:56.677Z,52.50
2019-01-22T21:20:26.077Z,57.57
2019-01-22T21:22:55.438Z,52.83
2019-01-22T21:25:24.811Z,53.70
2019-01-22T21:27:54.143Z,54.97
2019-01-22T21:30:50.148Z,54.57
2019-01-22T21:33:19.507Z,52.60
2019-01-22T21:35:48.899Z,51.60
2019-01-22T21:38:18.314Z,53.70
2019-01-22T21:40:47.701Z,53.13
2019-01-22T21:43:17.068Z,53.40
2019-01-22T21:45:46.509Z,50.47
2019-01-22T21:48:16.042Z,57.70
2019-01-22T21:50:45.380Z,56.30
2019-01-22T21:53:14.734Z,61.33
2019-01-22T21:55:44.055Z,51.07
2019-01-22T21:58:13.371Z,50.67
2019-01-22T22:00:42.690Z,54.43
2019-01-22T22:03:12.038Z,56.23
2019-01-22T22:05:41.383Z,57.53
2019-01-22T22:08:10.710Z,54.33
2019-01-22T22:10:40.041Z,58.70
2019-01-22T22:13:09.427Z,57.63
2019-01-22T22:15:38.761Z,61.57
2019-01-22T22:18:08.093Z,54.50
2019-01-22T22:20:37.355Z,62.20
2019-01-22T22:23:06.683Z,57.13
2019-01-22T22:25:35.997Z,60.63
2019-01-22T22:28:05.334Z,49.80
2019-01-22T22:30:36.477Z,56.40
2019-01-22T22:33:06.185Z,55.73
2019-01-22T22:35:35.489Z,57.87
2019-01-22T22:38:04.856Z,57.00
2019-01-22T22:40:34.163Z,54.17
2019-01-22T22:43:03.495Z,55.60
2019-01-22T22:45:32.823Z,55.20
2019-01-22T22:48:02.197Z,56.87
2019-01-22T22:50:32.806Z,53.63
2019-01-22T22:53:02.216Z,58.17
2019-01-22T22:55:31.534Z,58.00
2019-01-22T22:58:00.929Z,51.87
2019-01-22T23:01:10.758Z,60.60
2019-01-22T23:03:40.091Z,61.43
2019-01-22T23:06:09.427Z,58.70
2019-01-22T23:08:38.770Z,54.13
2019-01-22T23:11:08.154Z,63.67
2019-01-22T23:13:37.467Z,60.27
2019-01-22T23:16:06.921Z,61.23
2019-01-22T23:18:36.195Z,61.47
2019-01-22T23:21:05.617Z,55.23
2019-01-22T23:23:34.914Z,60.37
2019-01-22T23:26:04.261Z,56.30
2019-01-22T23:28:33.552Z,58.30
2019-01-22T23:31:03.057Z,54.60
2019-01-22T23:33:32.342Z,56.97
2019-01-22T23:36:01.760Z,58.27
2019-01-22T23:38:31.105Z,61.37
2019-01-22T23:41:00.433Z,52.43
2019-01-22T23:43:29.802Z,53.10
2019-01-22T23:45:59.108Z,63.50
2019-01-22T23:48:28.377Z,59.20
2019-01-22T23:50:57.667Z,55.07
2019-01-22T23:53:26.945Z,57.03
2019-01-22T23:55:56.238Z,58.30
2019-01-22T23:58:25.564Z,58.97
